Timaru Star — VRAA7 — position and weather

sailwx.info

Track history (hours):
 
Tides and Currents Weather Stations Pressure Air Temp Water Temp Dewpoint Dewpoint Depression Visibility Wind Speed Wind Dir Waves Ship Positions

Timaru Star

Last reported at 2017-Sep-22 01:00 UTC. Time now 2017-Sep-22 20:45 UTC.
Position N 47°14' W 125°27'.

Length 175 m; draft 6.2 m.

Type: Cargo ship. MMSI: 367002208.

Date/timePositionNaut miles runAvg speedWind from/ knotsBaromVisibWave heightAir tempDewpointWater temp
2017-Sep-22 01:00N 47°14' W 125°27'5 9.9
2017-Sep-22 00:30N 47°09' W 125°27'5 9.9
2017-Sep-21 23:59N 47°03' W 125°27'5 9.9
2017-Sep-21 23:29N 46°59' W 125°27'5 9.8
2017-Sep-21 23:00N 46°54' W 125°27'5 9.7
2017-Sep-21 22:30N 46°49' W 125°27'7 9.4
2017-Sep-21 21:44N 46°42' W 125°26'3 9.5
2017-Sep-21 21:25N 46°39' W 125°26'4 9.8
2017-Sep-21 21:00N 46°35' W 125°26'5 9.8
2017-Sep-21 20:30N 46°30' W 125°27'5 9.5
2017-Sep-21 20:00N 46°25' W 125°26'30 9.7
2017-Sep-21 16:55N 45°55' W 125°25'4 9.8
2017-Sep-21 16:30N 45°51' W 125°25'12 9.8
2017-Sep-21 15:19N 45°40' W 125°25'430 8.7
2017-Sep-19 13:59N 38°35' W 123°51'4 9.0
2017-Sep-19 13:30N 38°32' W 123°47'4 8.9
2017-Sep-19 13:00N 38°28' W 123°43'5 9.3
2017-Sep-19 12:30N 38°25' W 123°39'5 9.4
2017-Sep-19 12:00N 38°22' W 123°35'5 9.4
2017-Sep-19 11:30N 38°18' W 123°31'5 9.4
2017-Sep-19 11:00N 38°15' W 123°27'5 9.2
2017-Sep-19 10:30N 38°12' W 123°22'5 9.1
2017-Sep-19 10:00N 38°08' W 123°19'5 9.1
2017-Sep-19 09:30N 38°05' W 123°15'5 9.4
2017-Sep-19 09:00N 38°01' W 123°11'5 9.2
2017-Sep-19 08:30N 37°58' W 123°07'5 9.1
2017-Sep-19 08:00N 37°56' W 123°02'5 9.3
2017-Sep-19 07:30N 37°53' W 122°57'5 9.1
2017-Sep-19 07:00N 37°51' W 122°52'4 8.9
2017-Sep-19 06:30N 37°49' W 122°47'5 9.3
2017-Sep-19 06:00N 37°46' W 122°42'2 3.8
2017-Sep-19 05:31N 37°46' W 122°40'510.0
2017-Sep-19 05:00N 37°47' W 122°34'510.0
2017-Sep-19 04:30N 37°50' W 122°28'4 8.2
2017-Sep-19 04:00N 37°53' W 122°26'610.9
2017-Sep-19 03:30N 37°59' W 122°26'611.8
2017-Sep-19 03:00N 38°03' W 122°21'712.9
2017-Sep-19 02:29N 38°04' W 122°12'5 9.9
2017-Sep-19 01:58N 38°03' W 122°06'6 9.9
2017-Sep-19 01:19N 38°03' W 121°58'310.8
2017-Sep-19 01:00N 38°03' W 121°53'3 6.9
2017-Sep-19 00:30N 38°01' W 121°49'13 7.2
2017-Sep-18 22:42N 38°03' W 121°33'11 0.3
2017-Sep-17 15:07N 37°57' W 121°22'0 0.0
2017-Sep-17 14:55N 37°57' W 121°22'0 0.0
2017-Sep-17 14:25N 37°57' W 121°22'0 0.0
2017-Sep-17 13:55N 37°57' W 121°22'0 0.0
2017-Sep-17 12:25N 37°57' W 121°22'0 0.0
2017-Sep-17 11:55N 37°57' W 121°22'0 0.0
2017-Sep-17 11:25N 37°57' W 121°22'0 0.0
2017-Sep-17 10:55N 37°57' W 121°22'0 0.0
2017-Sep-17 10:25N 37°57' W 121°22'0 0.0
2017-Sep-17 09:55N 37°57' W 121°22'0 0.0
2017-Sep-17 08:07N 37°57' W 121°22'0 0.0
2017-Sep-17 07:49N 37°57' W 121°22'9 0.3
2017-Sep-16 03:19N 38°03' W 121°31'14 7.0
2017-Sep-16 01:15N 38°01' W 121°49'1 5.8
2017-Sep-16 01:00N 38°02' W 121°51'10 7.4
2017-Sep-15 23:42N 38°04' W 122°03'2 7.8
2017-Sep-15 23:30N 38°03' W 122°05'5 6.2
2017-Sep-15 22:46N 38°03' W 122°10'3 9.5
2017-Sep-15 22:30N 38°04' W 122°13'510.7
2017-Sep-15 22:00N 38°03' W 122°20'611.0
2017-Sep-15 21:30N 37°59' W 122°25'510.3
2017-Sep-15 21:00N 37°54' W 122°27'5 9.6
2017-Sep-15 20:30N 37°50' W 122°25'3 5.3
2017-Sep-15 20:00N 37°49' W 122°28'4 8.6
2017-Sep-15 19:30N 37°47' W 122°33'611.2
2017-Sep-15 19:00N 37°45' W 122°39'4 8.1
2017-Sep-15 18:30N 37°43' W 122°43'4 8.4
2017-Sep-15 18:00N 37°40' W 122°48'510.2
2017-Sep-15 17:30N 37°37' W 122°53'510.2
2017-Sep-15 17:00N 37°34' W 122°58'510.2
2017-Sep-15 16:30N 37°32' W 123°04'611.9
2017-Sep-15 16:00N 37°28' W 123°10'610.6
2017-Sep-15 15:25N 37°22' W 123°12'511.2
2017-Sep-15 14:59N 37°17' W 123°12'510.6
2017-Sep-15 14:30N 37°12' W 123°12'2 3.7
2017-Sep-15 14:00N 37°11' W 123°13'510.4
2017-Sep-15 13:30N 37°05' W 123°13'611.2
2017-Sep-15 13:00N 36°60' W 123°11'611.3
2017-Sep-15 12:30N 36°54' W 123°10'611.2
2017-Sep-15 12:01N 36°49' W 123°08'510.9
2017-Sep-15 11:31N 36°44' W 123°07'611.1
2017-Sep-15 11:00N 36°38' W 123°05'611.2
2017-Sep-15 10:30N 36°33' W 123°04'510.9
2017-Sep-15 10:00N 36°28' W 123°01'611.2
2017-Sep-15 09:29N 36°23' W 122°57'511.3
2017-Sep-15 09:00N 36°19' W 122°52'611.2
2017-Sep-15 08:30N 36°15' W 122°48'611.1
2017-Sep-15 08:00N 36°10' W 122°43'510.9
2017-Sep-15 07:30N 36°06' W 122°39'511.0
2017-Sep-15 07:01N 36°02' W 122°35'611.3
2017-Sep-15 06:30N 35°58' W 122°30'611.0
2017-Sep-15 06:00N 35°54' W 122°25'611.3
2017-Sep-15 05:31N 35°50' W 122°21'611.5
2017-Sep-15 05:00N 35°45' W 122°17'611.5
2017-Sep-15 04:30N 35°41' W 122°12'611.3
2017-Sep-15 04:00N 35°36' W 122°07'611.7
2017-Sep-15 03:30N 35°32' W 122°03'611.9
2017-Sep-15 03:00N 35°27' W 121°58'611.9
2017-Sep-15 02:30N 35°23' W 121°53'612.0
2017-Sep-15 02:00N 35°18' W 121°48'612.4
2017-Sep-15 01:30N 35°14' W 121°43'612.3
2017-Sep-15 01:01N 35°09' W 121°39'612.2
2017-Sep-15 00:30N 35°04' W 121°34'612.0
2017-Sep-15 00:00N 34°60' W 121°29'612.2
2017-Sep-14 23:30N 34°55' W 121°24'612.7
2017-Sep-14 23:00N 34°50' W 121°19'712.8
2017-Sep-14 22:29N 34°45' W 121°14'612.6
2017-Sep-14 22:00N 34°41' W 121°09'612.6
2017-Sep-14 21:30N 34°36' W 121°04'612.8
2017-Sep-14 21:00N 34°31' W 120°59'612.5
2017-Sep-14 20:31N 34°27' W 120°54'713.2
2017-Sep-14 20:00N 34°25' W 120°46'713.4
2017-Sep-14 19:30N 34°23' W 120°38'713.2
2017-Sep-14 19:00N 34°22' W 120°30'713.3
2017-Sep-14 18:30N 34°20' W 120°23'713.1
2017-Sep-14 18:00N 34°18' W 120°15'712.8
2017-Sep-14 17:28N 34°16' W 120°07'613.0
2017-Sep-14 16:59N 34°14' W 119°60'613.3
2017-Sep-14 16:30N 34°13' W 119°52'713.4
2017-Sep-14 15:59N 34°11' W 119°44'713.6
2017-Sep-14 15:30N 34°09' W 119°36'713.3
2017-Sep-14 14:59N 34°08' W 119°28'612.1
2017-Sep-14 14:29N 34°06' W 119°21'511.3
2017-Sep-14 14:00N 34°04' W 119°15'611.5
2017-Sep-14 13:29N 34°01' W 119°09'611.3
2017-Sep-14 13:00N 33°58' W 119°03'611.5
2017-Sep-14 12:27N 33°55' W 118°57'511.6
2017-Sep-14 12:00N 33°53' W 118°51'612.1
2017-Sep-14 11:31N 33°50' W 118°45'611.7
2017-Sep-14 11:01N 33°47' W 118°39'611.4
2017-Sep-14 10:30N 33°44' W 118°33'611.3
2017-Sep-14 10:00N 33°41' W 118°27'611.6
2017-Sep-14 09:30N 33°38' W 118°21'5 9.6
2017-Sep-14 09:00N 33°39' W 118°15'4 7.6
2017-Sep-14 08:30N 33°43' W 118°15'2 4.1
2017-Sep-14 07:54N 33°45' W 118°16'1 2.3
2017-Sep-14 07:30N 33°46' W 118°15'0 0.0
2017-Sep-14 06:26N 33°46' W 118°15'0 0.0
2017-Sep-14 04:32N 33°46' W 118°15'0 0.0
2017-Sep-14 04:02N 33°46' W 118°15'0 0.0
2017-Sep-14 03:44N 33°46' W 118°15'0 0.0
2017-Sep-14 03:20N 33°46' W 118°15'0 0.0
2017-Sep-14 02:50N 33°46' W 118°15'0 0.0
2017-Sep-14 02:26N 33°46' W 118°15'0 0.0
2017-Sep-14 01:56N 33°46' W 118°15'0 0.0
2017-Sep-14 01:26N 33°46' W 118°15'0 0.0
2017-Sep-14 00:41N 33°46' W 118°15'0 0.0
2017-Sep-14 00:23N 33°46' W 118°15'0 0.0
2017-Sep-13 23:59N 33°46' W 118°15'0 0.0
2017-Sep-13 23:26N 33°46' W 118°15'0 0.0
2017-Sep-13 22:20N 33°46' W 118°15'0 0.0
2017-Sep-13 21:59N 33°46' W 118°15'0 0.0
2017-Sep-13 21:14N 33°46' W 118°15'0 0.0
2017-Sep-13 20:56N 33°46' W 118°15'0 0.0
2017-Sep-13 20:29N 33°46' W 118°15'0 0.0
2017-Sep-13 19:44N 33°46' W 118°15'0 0.0
2017-Sep-13 19:26N 33°46' W 118°15'0 0.0
2017-Sep-13 18:08N 33°46' W 118°15'0 0.0
2017-Sep-13 17:56N 33°46' W 118°15'0 0.0
2017-Sep-13 17:29N 33°46' W 118°15'0 0.0
2017-Sep-13 16:56N 33°46' W 118°15'0 0.0
2017-Sep-13 16:23N 33°46' W 118°15'0 0.0
2017-Sep-13 15:02N 33°46' W 118°15'0 0.1
2017-Sep-13 14:59N 33°46' W 118°15'0 0.0
2017-Sep-13 13:15N 33°46' W 118°15'0 0.0
2017-Sep-13 13:00N 33°46' W 118°15'1 2.8
2017-Sep-13 12:30N 33°45' W 118°16'2 4.7
2017-Sep-13 12:00N 33°43' W 118°15'1 2.2
2017-Sep-13 11:28N 33°42' W 118°14'1 1.7
2017-Sep-13 10:58N 33°43' W 118°13'0 0.0
2017-Sep-13 09:49N 33°43' W 118°13'0 0.0
2017-Sep-13 09:22N 33°43' W 118°13'0 0.0
2017-Sep-13 08:58N 33°43' W 118°13'0 0.1
2017-Sep-13 08:28N 33°43' W 118°13'0 0.1
2017-Sep-13 07:52N 33°43' W 118°13'0 0.0
2017-Sep-13 07:28N 33°43' W 118°13'0 0.0
2017-Sep-13 06:58N 33°43' W 118°13'0 0.0
2017-Sep-13 06:25N 33°43' W 118°13'0 0.0
2017-Sep-13 05:34N 33°43' W 118°13'0 0.0
2017-Sep-13 05:22N 33°43' W 118°13'0 0.0
2017-Sep-13 04:58N 33°43' W 118°13'0 0.0
2017-Sep-13 04:28N 33°43' W 118°13'0 0.0
2017-Sep-13 03:55N 33°43' W 118°13'0 0.0
2017-Sep-13 03:28N 33°43' W 118°13'0 0.0
2017-Sep-13 02:58N 33°43' W 118°13'0 0.0
2017-Sep-13 02:28N 33°43' W 118°13'0 0.0
2017-Sep-13 01:55N 33°43' W 118°13'0 0.0
2017-Sep-13 01:28N 33°43' W 118°13'0 0.0
2017-Sep-13 00:58N 33°43' W 118°13'0 0.0
2017-Sep-13 00:28N 33°43' W 118°13'0 0.0
2017-Sep-12 23:58N 33°43' W 118°13'0 0.0
2017-Sep-12 23:28N 33°43' W 118°13'0 0.0
2017-Sep-12 22:58N 33°43' W 118°13'0 0.0
2017-Sep-12 22:28N 33°43' W 118°13'0 0.0
2017-Sep-12 21:58N 33°43' W 118°13'0 0.0
2017-Sep-12 21:28N 33°43' W 118°13'0 0.0
2017-Sep-12 20:58N 33°43' W 118°13'0 0.0
2017-Sep-12 20:28N 33°43' W 118°13'0 0.0
2017-Sep-12 19:58N 33°43' W 118°13'0 0.1
2017-Sep-12 19:28N 33°43' W 118°13'0 0.0
2017-Sep-12 18:58N 33°43' W 118°13'0 0.0
2017-Sep-12 18:25N 33°43' W 118°13'0 0.0
2017-Sep-12 17:58N 33°43' W 118°13'0 0.0
2017-Sep-12 17:13N 33°43' W 118°13'0 0.0
2017-Sep-12 16:58N 33°43' W 118°13'0 0.0
2017-Sep-12 16:28N 33°43' W 118°13'0 0.0
2017-Sep-12 15:58N 33°43' W 118°13'0 0.0
2017-Sep-12 15:28N 33°43' W 118°13'0 0.1
2017-Sep-12 14:55N 33°43' W 118°13'0 0.0
2017-Sep-12 14:28N 33°43' W 118°13'0 0.0
2017-Sep-12 13:58N 33°43' W 118°13'0 0.0
2017-Sep-12 13:28N 33°43' W 118°13'0 0.1
2017-Sep-12 12:55N 33°43' W 118°13'0 0.1
2017-Sep-12 12:28N 33°43' W 118°13'0 0.1
2017-Sep-12 11:58N 33°43' W 118°13'0 0.1
2017-Sep-12 11:28N 33°43' W 118°13'0 0.0
2017-Sep-12 10:58N 33°43' W 118°13'0 0.0
2017-Sep-12 10:28N 33°43' W 118°13'0 0.1
2017-Sep-12 09:58N 33°43' W 118°13'0 0.0
2017-Sep-12 09:28N 33°43' W 118°13'0 0.0
2017-Sep-12 08:58N 33°43' W 118°13'0 0.0
2017-Sep-12 08:28N 33°43' W 118°13'0 0.0
2017-Sep-12 07:58N 33°43' W 118°13'0 0.1
2017-Sep-12 07:28N 33°43' W 118°13'0 0.1
2017-Sep-12 06:58N 33°43' W 118°13'0 0.0
2017-Sep-12 06:28N 33°43' W 118°13'0 0.0
2017-Sep-12 05:58N 33°43' W 118°13'0 0.0
2017-Sep-12 05:28N 33°43' W 118°13'0 0.0
2017-Sep-12 04:58N 33°43' W 118°13'0 0.0
2017-Sep-12 04:28N 33°43' W 118°13'0 0.0
2017-Sep-12 03:58N 33°43' W 118°13'0 0.0
2017-Sep-12 03:28N 33°43' W 118°13'0 0.0
2017-Sep-12 02:58N 33°43' W 118°13'0 0.0
2017-Sep-12 02:28N 33°43' W 118°13'0 0.0
2017-Sep-12 01:58N 33°43' W 118°13'0 0.0
2017-Sep-12 01:28N 33°43' W 118°13'  
Track history (hours):
 
Tides and Currents Weather Stations Pressure Air Temp Water Temp Dewpoint Dewpoint Depression Visibility Wind Speed Wind Dir Waves Ship Positions

Timaru Star

Last reported at 2017-Sep-22 01:00 UTC. Time now 2017-Sep-22 20:45 UTC.
Position N 47°14' W 125°27'.

Length 175 m; draft 6.2 m.

Type: Cargo ship. MMSI: 367002208.

Date/timePositionNaut miles runAvg speedWind from/ knotsBaromVisibWave heightAir tempDewpointWater temp
2017-Sep-22 01:00N 47°14' W 125°27'5 9.9
2017-Sep-22 00:30N 47°09' W 125°27'5 9.9
2017-Sep-21 23:59N 47°03' W 125°27'5 9.9
2017-Sep-21 23:29N 46°59' W 125°27'5 9.8
2017-Sep-21 23:00N 46°54' W 125°27'5 9.7
2017-Sep-21 22:30N 46°49' W 125°27'7 9.4
2017-Sep-21 21:44N 46°42' W 125°26'3 9.5
2017-Sep-21 21:25N 46°39' W 125°26'4 9.8
2017-Sep-21 21:00N 46°35' W 125°26'5 9.8
2017-Sep-21 20:30N 46°30' W 125°27'5 9.5
2017-Sep-21 20:00N 46°25' W 125°26'30 9.7
2017-Sep-21 16:55N 45°55' W 125°25'4 9.8
2017-Sep-21 16:30N 45°51' W 125°25'12 9.8
2017-Sep-21 15:19N 45°40' W 125°25'430 8.7
2017-Sep-19 13:59N 38°35' W 123°51'4 9.0
2017-Sep-19 13:30N 38°32' W 123°47'4 8.9
2017-Sep-19 13:00N 38°28' W 123°43'5 9.3
2017-Sep-19 12:30N 38°25' W 123°39'5 9.4
2017-Sep-19 12:00N 38°22' W 123°35'5 9.4
2017-Sep-19 11:30N 38°18' W 123°31'5 9.4
2017-Sep-19 11:00N 38°15' W 123°27'5 9.2
2017-Sep-19 10:30N 38°12' W 123°22'5 9.1
2017-Sep-19 10:00N 38°08' W 123°19'5 9.1
2017-Sep-19 09:30N 38°05' W 123°15'5 9.4
2017-Sep-19 09:00N 38°01' W 123°11'5 9.2
2017-Sep-19 08:30N 37°58' W 123°07'5 9.1
2017-Sep-19 08:00N 37°56' W 123°02'5 9.3
2017-Sep-19 07:30N 37°53' W 122°57'5 9.1
2017-Sep-19 07:00N 37°51' W 122°52'4 8.9
2017-Sep-19 06:30N 37°49' W 122°47'5 9.3
2017-Sep-19 06:00N 37°46' W 122°42'2 3.8
2017-Sep-19 05:31N 37°46' W 122°40'510.0
2017-Sep-19 05:00N 37°47' W 122°34'510.0
2017-Sep-19 04:30N 37°50' W 122°28'4 8.2
2017-Sep-19 04:00N 37°53' W 122°26'610.9
2017-Sep-19 03:30N 37°59' W 122°26'611.8
2017-Sep-19 03:00N 38°03' W 122°21'712.9
2017-Sep-19 02:29N 38°04' W 122°12'5 9.9
2017-Sep-19 01:58N 38°03' W 122°06'6 9.9
2017-Sep-19 01:19N 38°03' W 121°58'310.8
2017-Sep-19 01:00N 38°03' W 121°53'3 6.9
2017-Sep-19 00:30N 38°01' W 121°49'13 7.2
2017-Sep-18 22:42N 38°03' W 121°33'11 0.3
2017-Sep-17 15:07N 37°57' W 121°22'0 0.0
2017-Sep-17 14:55N 37°57' W 121°22'0 0.0
2017-Sep-17 14:25N 37°57' W 121°22'0 0.0
2017-Sep-17 13:55N 37°57' W 121°22'0 0.0
2017-Sep-17 12:25N 37°57' W 121°22'0 0.0
2017-Sep-17 11:55N 37°57' W 121°22'0 0.0
2017-Sep-17 11:25N 37°57' W 121°22'0 0.0
2017-Sep-17 10:55N 37°57' W 121°22'0 0.0
2017-Sep-17 10:25N 37°57' W 121°22'0 0.0
2017-Sep-17 09:55N 37°57' W 121°22'0 0.0
2017-Sep-17 08:07N 37°57' W 121°22'0 0.0
2017-Sep-17 07:49N 37°57' W 121°22'9 0.3
2017-Sep-16 03:19N 38°03' W 121°31'14 7.0
2017-Sep-16 01:15N 38°01' W 121°49'1 5.8
2017-Sep-16 01:00N 38°02' W 121°51'10 7.4
2017-Sep-15 23:42N 38°04' W 122°03'2 7.8
2017-Sep-15 23:30N 38°03' W 122°05'5 6.2
2017-Sep-15 22:46N 38°03' W 122°10'3 9.5
2017-Sep-15 22:30N 38°04' W 122°13'510.7
2017-Sep-15 22:00N 38°03' W 122°20'611.0
2017-Sep-15 21:30N 37°59' W 122°25'510.3
2017-Sep-15 21:00N 37°54' W 122°27'5 9.6
2017-Sep-15 20:30N 37°50' W 122°25'3 5.3
2017-Sep-15 20:00N 37°49' W 122°28'4 8.6
2017-Sep-15 19:30N 37°47' W 122°33'611.2
2017-Sep-15 19:00N 37°45' W 122°39'4 8.1
2017-Sep-15 18:30N 37°43' W 122°43'4 8.4
2017-Sep-15 18:00N 37°40' W 122°48'510.2
2017-Sep-15 17:30N 37°37' W 122°53'510.2
2017-Sep-15 17:00N 37°34' W 122°58'510.2
2017-Sep-15 16:30N 37°32' W 123°04'611.9
2017-Sep-15 16:00N 37°28' W 123°10'610.6
2017-Sep-15 15:25N 37°22' W 123°12'511.2
2017-Sep-15 14:59N 37°17' W 123°12'510.6
2017-Sep-15 14:30N 37°12' W 123°12'2 3.7
2017-Sep-15 14:00N 37°11' W 123°13'510.4
2017-Sep-15 13:30N 37°05' W 123°13'611.2
2017-Sep-15 13:00N 36°60' W 123°11'611.3
2017-Sep-15 12:30N 36°54' W 123°10'611.2
2017-Sep-15 12:01N 36°49' W 123°08'510.9
2017-Sep-15 11:31N 36°44' W 123°07'611.1
2017-Sep-15 11:00N 36°38' W 123°05'611.2
2017-Sep-15 10:30N 36°33' W 123°04'510.9
2017-Sep-15 10:00N 36°28' W 123°01'611.2
2017-Sep-15 09:29N 36°23' W 122°57'511.3
2017-Sep-15 09:00N 36°19' W 122°52'611.2
2017-Sep-15 08:30N 36°15' W 122°48'611.1
2017-Sep-15 08:00N 36°10' W 122°43'510.9
2017-Sep-15 07:30N 36°06' W 122°39'511.0
2017-Sep-15 07:01N 36°02' W 122°35'611.3
2017-Sep-15 06:30N 35°58' W 122°30'611.0
2017-Sep-15 06:00N 35°54' W 122°25'611.3
2017-Sep-15 05:31N 35°50' W 122°21'611.5
2017-Sep-15 05:00N 35°45' W 122°17'611.5
2017-Sep-15 04:30N 35°41' W 122°12'611.3
2017-Sep-15 04:00N 35°36' W 122°07'611.7
2017-Sep-15 03:30N 35°32' W 122°03'611.9
2017-Sep-15 03:00N 35°27' W 121°58'611.9
2017-Sep-15 02:30N 35°23' W 121°53'612.0
2017-Sep-15 02:00N 35°18' W 121°48'612.4
2017-Sep-15 01:30N 35°14' W 121°43'612.3
2017-Sep-15 01:01N 35°09' W 121°39'612.2
2017-Sep-15 00:30N 35°04' W 121°34'612.0
2017-Sep-15 00:00N 34°60' W 121°29'612.2
2017-Sep-14 23:30N 34°55' W 121°24'612.7
2017-Sep-14 23:00N 34°50' W 121°19'712.8
2017-Sep-14 22:29N 34°45' W 121°14'612.6
2017-Sep-14 22:00N 34°41' W 121°09'612.6
2017-Sep-14 21:30N 34°36' W 121°04'612.8
2017-Sep-14 21:00N 34°31' W 120°59'612.5
2017-Sep-14 20:31N 34°27' W 120°54'713.2
2017-Sep-14 20:00N 34°25' W 120°46'713.4
2017-Sep-14 19:30N 34°23' W 120°38'713.2
2017-Sep-14 19:00N 34°22' W 120°30'713.3
2017-Sep-14 18:30N 34°20' W 120°23'713.1
2017-Sep-14 18:00N 34°18' W 120°15'712.8
2017-Sep-14 17:28N 34°16' W 120°07'613.0
2017-Sep-14 16:59N 34°14' W 119°60'613.3
2017-Sep-14 16:30N 34°13' W 119°52'713.4
2017-Sep-14 15:59N 34°11' W 119°44'713.6
2017-Sep-14 15:30N 34°09' W 119°36'713.3
2017-Sep-14 14:59N 34°08' W 119°28'612.1
2017-Sep-14 14:29N 34°06' W 119°21'511.3
2017-Sep-14 14:00N 34°04' W 119°15'611.5
2017-Sep-14 13:29N 34°01' W 119°09'611.3
2017-Sep-14 13:00N 33°58' W 119°03'611.5
2017-Sep-14 12:27N 33°55' W 118°57'511.6
2017-Sep-14 12:00N 33°53' W 118°51'612.1
2017-Sep-14 11:31N 33°50' W 118°45'611.7
2017-Sep-14 11:01N 33°47' W 118°39'611.4
2017-Sep-14 10:30N 33°44' W 118°33'611.3
2017-Sep-14 10:00N 33°41' W 118°27'611.6
2017-Sep-14 09:30N 33°38' W 118°21'5 9.6
2017-Sep-14 09:00N 33°39' W 118°15'4 7.6
2017-Sep-14 08:30N 33°43' W 118°15'2 4.1
2017-Sep-14 07:54N 33°45' W 118°16'1 2.3
2017-Sep-14 07:30N 33°46' W 118°15'0 0.0
2017-Sep-14 06:26N 33°46' W 118°15'0 0.0
2017-Sep-14 04:32N 33°46' W 118°15'0 0.0
2017-Sep-14 04:02N 33°46' W 118°15'0 0.0
2017-Sep-14 03:44N 33°46' W 118°15'0 0.0
2017-Sep-14 03:20N 33°46' W 118°15'0 0.0
2017-Sep-14 02:50N 33°46' W 118°15'0 0.0
2017-Sep-14 02:26N 33°46' W 118°15'0 0.0
2017-Sep-14 01:56N 33°46' W 118°15'0 0.0
2017-Sep-14 01:26N 33°46' W 118°15'0 0.0
2017-Sep-14 00:41N 33°46' W 118°15'0 0.0
2017-Sep-14 00:23N 33°46' W 118°15'0 0.0
2017-Sep-13 23:59N 33°46' W 118°15'0 0.0
2017-Sep-13 23:26N 33°46' W 118°15'0 0.0
2017-Sep-13 22:20N 33°46' W 118°15'0 0.0
2017-Sep-13 21:59N 33°46' W 118°15'0 0.0
2017-Sep-13 21:14N 33°46' W 118°15'0 0.0
2017-Sep-13 20:56N 33°46' W 118°15'0 0.0
2017-Sep-13 20:29N 33°46' W 118°15'0 0.0
2017-Sep-13 19:44N 33°46' W 118°15'0 0.0
2017-Sep-13 19:26N 33°46' W 118°15'0 0.0
2017-Sep-13 18:08N 33°46' W 118°15'0 0.0
2017-Sep-13 17:56N 33°46' W 118°15'0 0.0
2017-Sep-13 17:29N 33°46' W 118°15'0 0.0
2017-Sep-13 16:56N 33°46' W 118°15'0 0.0
2017-Sep-13 16:23N 33°46' W 118°15'0 0.0
2017-Sep-13 15:02N 33°46' W 118°15'0 0.1
2017-Sep-13 14:59N 33°46' W 118°15'0 0.0
2017-Sep-13 13:15N 33°46' W 118°15'0 0.0
2017-Sep-13 13:00N 33°46' W 118°15'1 2.8
2017-Sep-13 12:30N 33°45' W 118°16'2 4.7
2017-Sep-13 12:00N 33°43' W 118°15'1 2.2
2017-Sep-13 11:28N 33°42' W 118°14'1 1.7
2017-Sep-13 10:58N 33°43' W 118°13'0 0.0
2017-Sep-13 09:49N 33°43' W 118°13'0 0.0
2017-Sep-13 09:22N 33°43' W 118°13'0 0.0
2017-Sep-13 08:58N 33°43' W 118°13'0 0.1
2017-Sep-13 08:28N 33°43' W 118°13'0 0.1
2017-Sep-13 07:52N 33°43' W 118°13'0 0.0
2017-Sep-13 07:28N 33°43' W 118°13'0 0.0
2017-Sep-13 06:58N 33°43' W 118°13'0 0.0
2017-Sep-13 06:25N 33°43' W 118°13'0 0.0
2017-Sep-13 05:34N 33°43' W 118°13'0 0.0
2017-Sep-13 05:22N 33°43' W 118°13'0 0.0
2017-Sep-13 04:58N 33°43' W 118°13'0 0.0
2017-Sep-13 04:28N 33°43' W 118°13'0 0.0
2017-Sep-13 03:55N 33°43' W 118°13'0 0.0
2017-Sep-13 03:28N 33°43' W 118°13'0 0.0
2017-Sep-13 02:58N 33°43' W 118°13'0 0.0
2017-Sep-13 02:28N 33°43' W 118°13'0 0.0
2017-Sep-13 01:55N 33°43' W 118°13'0 0.0
2017-Sep-13 01:28N 33°43' W 118°13'0 0.0
2017-Sep-13 00:58N 33°43' W 118°13'0 0.0
2017-Sep-13 00:28N 33°43' W 118°13'0 0.0
2017-Sep-12 23:58N 33°43' W 118°13'0 0.0
2017-Sep-12 23:28N 33°43' W 118°13'0 0.0
2017-Sep-12 22:58N 33°43' W 118°13'0 0.0
2017-Sep-12 22:28N 33°43' W 118°13'0 0.0
2017-Sep-12 21:58N 33°43' W 118°13'0 0.0
2017-Sep-12 21:28N 33°43' W 118°13'0 0.0
2017-Sep-12 20:58N 33°43' W 118°13'0 0.0
2017-Sep-12 20:28N 33°43' W 118°13'0 0.0
2017-Sep-12 19:58N 33°43' W 118°13'0 0.1
2017-Sep-12 19:28N 33°43' W 118°13'0 0.0
2017-Sep-12 18:58N 33°43' W 118°13'0 0.0
2017-Sep-12 18:25N 33°43' W 118°13'0 0.0
2017-Sep-12 17:58N 33°43' W 118°13'0 0.0
2017-Sep-12 17:13N 33°43' W 118°13'0 0.0
2017-Sep-12 16:58N 33°43' W 118°13'0 0.0
2017-Sep-12 16:28N 33°43' W 118°13'0 0.0
2017-Sep-12 15:58N 33°43' W 118°13'0 0.0
2017-Sep-12 15:28N 33°43' W 118°13'0 0.1
2017-Sep-12 14:55N 33°43' W 118°13'0 0.0
2017-Sep-12 14:28N 33°43' W 118°13'0 0.0
2017-Sep-12 13:58N 33°43' W 118°13'0 0.0
2017-Sep-12 13:28N 33°43' W 118°13'0 0.1
2017-Sep-12 12:55N 33°43' W 118°13'0 0.1
2017-Sep-12 12:28N 33°43' W 118°13'0 0.1
2017-Sep-12 11:58N 33°43' W 118°13'0 0.1
2017-Sep-12 11:28N 33°43' W 118°13'0 0.0
2017-Sep-12 10:58N 33°43' W 118°13'0 0.0
2017-Sep-12 10:28N 33°43' W 118°13'0 0.1
2017-Sep-12 09:58N 33°43' W 118°13'0 0.0
2017-Sep-12 09:28N 33°43' W 118°13'0 0.0
2017-Sep-12 08:58N 33°43' W 118°13'0 0.0
2017-Sep-12 08:28N 33°43' W 118°13'0 0.0
2017-Sep-12 07:58N 33°43' W 118°13'0 0.1
2017-Sep-12 07:28N 33°43' W 118°13'0 0.1
2017-Sep-12 06:58N 33°43' W 118°13'0 0.0
2017-Sep-12 06:28N 33°43' W 118°13'0 0.0
2017-Sep-12 05:58N 33°43' W 118°13'0 0.0
2017-Sep-12 05:28N 33°43' W 118°13'0 0.0
2017-Sep-12 04:58N 33°43' W 118°13'0 0.0
2017-Sep-12 04:28N 33°43' W 118°13'0 0.0
2017-Sep-12 03:58N 33°43' W 118°13'0 0.0
2017-Sep-12 03:28N 33°43' W 118°13'0 0.0
2017-Sep-12 02:58N 33°43' W 118°13'0 0.0
2017-Sep-12 02:28N 33°43' W 118°13'0 0.0
2017-Sep-12 01:58N 33°43' W 118°13'0 0.0
2017-Sep-12 01:28N 33°43' W 118°13'  

Dump ship's entire track history